DAOV

Ghriss Airport

Algeria
TAF DAOV 160500Z 1606/1615 VRB02KT 9999 FEW026 SCT100 BECMG 1608/1610 -RA SCT023 BKN030 TEMPO 1611/1615 -TSRA SCT023TCU FEW026CB
Issued Valid From Valid To
Oct-16 @ 05:00 UTC
(2 hours ago)
Oct-16 @ 06:00 UTC
(32 minutes ago)
Oct-16 @ 15:00 UTC
(in 8 hours)
Oct-16 @ 06:00 to Oct-16 @ 08:00
TAF DAOV 160500Z 1606/1615 VRB02KT 9999 FEW026 SCT100
Wind Visibility Clouds
Variable at 2 knots 10,000+ meters
  • Few at 2,600' AGL
  • Scattered at 10,000' AGL
Becoming Oct-16 @ 08:00 to Oct-16 @ 15:00
BECMG 1608/1610 -RA SCT023 BKN030
Wind Visibility Clouds Conditions
Variable at 2 knots 10,000+ meters
  • Scattered at 2,300' AGL
  • Broken at 3,000' AGL
  • Light Rain
Temporary Oct-16 @ 11:00 to Oct-16 @ 15:00
TEMPO 1611/1615 -TSRA SCT023TCU FEW026CB
Clouds Conditions
  • Scattered at 2,300' AGL
  • Few at 2,600' AGL
  • Light Thunderstorm
  • Light Rain
TAF DAOV 160500Z 1606/1615 VRB02KT 9999 FEW026 SCT100 BECMG 1608/1610 -RA SCT023 BKN030 TEMPO 1611/1615 -TSRA SCT023TCU FEW026CB
Issued Oct-16 @ 05:00 UTC
(2 hours ago)
Valid From Oct-16 @ 06:00 UTC
(32 minutes ago)
Valid To Oct-16 @ 15:00 UTC
(in 8 hours)
Oct-16 @ 06:00 - Oct-16 @ 08:00
Wind Visibility
Variable at 2 knots 10,000+ meters
Clouds
  • Few at 2,600' AGL
  • Scattered at 10,000' AGL
Becoming Oct-16 @ 08:00 - Oct-16 @ 15:00
Wind Visibility
Variable at 2 knots 10,000+ meters
Clouds
  • Scattered at 2,300' AGL
  • Broken at 3,000' AGL
Conditions
  • Light Rain
Temporary Oct-16 @ 11:00 - Oct-16 @ 15:00
Clouds
  • Scattered at 2,300' AGL
  • Few at 2,600' AGL
Conditions
  • Light Thunderstorm
  • Light Rain